createdAt,value
2023-01-19T00:01:08.815Z,43.46
2023-01-19T00:03:37.289Z,43.40
2023-01-19T00:06:07.573Z,43.68
2023-01-19T00:08:36.335Z,43.54
2023-01-19T00:11:05.325Z,43.53
2023-01-19T00:13:33.734Z,43.62
2023-01-19T00:16:03.546Z,43.63
2023-01-19T00:18:31.983Z,43.79
2023-01-19T00:21:00.894Z,43.74
2023-01-19T00:23:29.353Z,43.89
2023-01-19T00:25:59.473Z,43.54
2023-01-19T00:28:27.916Z,43.83
2023-01-19T00:30:57.274Z,43.81
2023-01-19T00:33:26.042Z,43.77
2023-01-19T00:35:57.794Z,43.83
2023-01-19T00:38:26.441Z,43.83
2023-01-19T00:40:55.393Z,44.01
2023-01-19T00:43:24.039Z,44.08
2023-01-19T00:45:53.737Z,43.88
2023-01-19T00:48:22.493Z,44.02
2023-01-19T00:50:51.553Z,43.85
2023-01-19T00:53:20.335Z,43.86
2023-01-19T00:55:49.355Z,44.13
2023-01-19T00:58:17.922Z,44.16
2023-01-19T01:00:48.137Z,43.80
2023-01-19T01:03:16.839Z,43.89
2023-01-19T01:05:45.815Z,43.83
2023-01-19T01:08:14.505Z,43.84
2023-01-19T01:10:43.483Z,43.84
2023-01-19T01:13:21.615Z,44.01
2023-01-19T01:15:52.519Z,43.96
2023-01-19T01:18:21.486Z,43.79
2023-01-19T01:20:50.570Z,43.84
2023-01-19T01:23:23.242Z,43.81
2023-01-19T01:25:52.160Z,43.77
2023-01-19T01:28:20.690Z,43.82
2023-01-19T01:30:53.136Z,43.77
2023-01-19T01:33:41.370Z,43.95
2023-01-19T01:36:11.976Z,43.81
2023-01-19T01:38:41.253Z,43.98
2023-01-19T01:41:09.947Z,43.95
2023-01-19T01:43:49.478Z,43.99
2023-01-19T01:46:20.147Z,43.90
2023-01-19T01:48:53.158Z,43.76
2023-01-19T01:51:48.300Z,43.93
2023-01-19T01:54:22.017Z,43.95
2023-01-19T01:56:55.776Z,43.88
2023-01-19T01:59:34.909Z,43.89
2023-01-19T02:02:32.036Z,43.98
2023-01-19T02:05:04.590Z,43.99
2023-01-19T02:08:00.029Z,43.89
2023-01-19T02:10:47.188Z,44.08
2023-01-19T02:13:22.185Z,44.05
2023-01-19T02:15:59.368Z,44.08
2023-01-19T02:18:29.836Z,44.08
2023-01-19T02:21:19.050Z,44.09
2023-01-19T02:23:58.288Z,43.95
2023-01-19T02:26:37.056Z,44.16
2023-01-19T02:29:11.256Z,44.15
2023-01-19T02:31:40.347Z,43.93
2023-01-19T02:34:10.961Z,43.92
2023-01-19T02:37:02.325Z,44.01
2023-01-19T02:39:43.862Z,44.08
2023-01-19T02:42:37.547Z,44.16
2023-01-19T02:45:07.216Z,44.16
2023-01-19T02:47:40.235Z,44.15
2023-01-19T02:50:36.300Z,43.99
2023-01-19T02:53:37.762Z,43.99
2023-01-19T02:56:09.367Z,44.21
2023-01-19T02:58:43.955Z,44.20
2023-01-19T03:01:36.049Z,44.32
2023-01-19T03:04:10.309Z,44.21
2023-01-19T03:06:45.600Z,44.16
2023-01-19T03:09:34.486Z,44.07
2023-01-19T03:12:10.275Z,44.06
2023-01-19T03:14:41.935Z,44.05
2023-01-19T03:17:12.275Z,44.05
2023-01-19T03:19:41.805Z,44.07
2023-01-19T03:22:17.937Z,44.05
2023-01-19T03:24:47.069Z,44.04
2023-01-19T03:27:25.617Z,43.99
2023-01-19T03:30:07.895Z,44.14
2023-01-19T03:32:39.626Z,44.04
2023-01-19T03:35:10.715Z,43.99
2023-01-19T03:37:43.358Z,44.09
2023-01-19T03:40:12.426Z,44.18
2023-01-19T03:42:42.886Z,44.04
2023-01-19T03:45:12.088Z,44.19
2023-01-19T03:47:41.116Z,44.18
2023-01-19T03:50:12.551Z,44.27
2023-01-19T03:52:41.845Z,44.22
2023-01-19T03:55:10.819Z,44.36
2023-01-19T03:57:39.895Z,44.42
2023-01-19T04:00:09.359Z,44.34
2023-01-19T04:02:55.771Z,44.44
2023-01-19T04:05:24.804Z,44.31
2023-01-19T04:07:54.158Z,44.30
2023-01-19T04:10:23.236Z,44.42
2023-01-19T04:12:57.391Z,44.59
2023-01-19T04:15:26.834Z,44.40
2023-01-19T04:17:57.385Z,44.41
2023-01-19T04:20:28.412Z,44.59
2023-01-19T04:23:00.839Z,44.57
2023-01-19T04:25:29.933Z,44.37
2023-01-19T04:27:58.553Z,44.51
2023-01-19T04:30:28.062Z,44.48
2023-01-19T04:32:57.840Z,44.62
2023-01-19T04:35:28.156Z,44.47
2023-01-19T04:37:56.806Z,44.43
2023-01-19T04:40:25.939Z,44.48
2023-01-19T04:42:54.636Z,44.70
2023-01-19T04:45:23.515Z,44.63
2023-01-19T04:47:52.077Z,44.31
2023-01-19T04:50:22.054Z,44.26
2023-01-19T04:52:50.737Z,43.96
2023-01-19T04:55:19.959Z,44.03
2023-01-19T04:57:48.557Z,43.60
2023-01-19T05:00:18.124Z,43.39
2023-01-19T05:02:46.963Z,43.30
2023-01-19T05:05:16.568Z,42.65
2023-01-19T05:07:45.616Z,42.59
2023-01-19T05:10:14.640Z,42.32
2023-01-19T05:12:43.019Z,42.16
2023-01-19T05:15:12.116Z,42.16
2023-01-19T05:17:40.600Z,41.78
2023-01-19T05:20:13.782Z,41.74
2023-01-19T05:22:48.644Z,41.43
2023-01-19T05:25:17.600Z,41.26
2023-01-19T05:27:46.053Z,41.26
2023-01-19T05:30:15.180Z,41.15
2023-01-19T05:32:44.601Z,41.04
2023-01-19T05:35:20.140Z,40.92
2023-01-19T05:37:53.408Z,40.93
2023-01-19T05:40:22.217Z,40.85
2023-01-19T05:42:50.637Z,40.58
2023-01-19T05:45:19.323Z,40.66
2023-01-19T05:47:48.051Z,40.46
2023-01-19T05:50:17.120Z,40.49
2023-01-19T05:52:45.777Z,40.19
2023-01-19T05:55:15.575Z,40.23
2023-01-19T05:57:46.223Z,40.08
2023-01-19T06:00:15.811Z,39.94
2023-01-19T06:02:44.634Z,39.92
2023-01-19T06:05:14.438Z,39.96
2023-01-19T06:07:42.775Z,39.75
2023-01-19T06:10:11.934Z,39.84
2023-01-19T06:12:43.624Z,39.63
2023-01-19T06:15:14.363Z,39.74
2023-01-19T06:17:43.171Z,39.53
2023-01-19T06:20:14.183Z,39.69
2023-01-19T06:22:42.506Z,39.42
2023-01-19T06:25:12.104Z,39.73
2023-01-19T06:27:45.201Z,39.59
2023-01-19T06:30:14.515Z,39.67
2023-01-19T06:32:42.988Z,39.94
2023-01-19T06:35:12.416Z,39.95
2023-01-19T06:37:40.874Z,40.25
2023-01-19T06:40:14.498Z,40.27
2023-01-19T06:42:43.353Z,40.45
2023-01-19T06:45:12.238Z,40.41
2023-01-19T06:47:40.707Z,40.55
2023-01-19T06:50:10.339Z,40.67
2023-01-19T06:52:42.741Z,41.07
2023-01-19T06:55:12.247Z,41.00
2023-01-19T06:57:41.056Z,41.09
2023-01-19T07:00:12.136Z,40.99
2023-01-19T07:02:43.902Z,41.15
2023-01-19T07:05:14.600Z,41.17
2023-01-19T07:07:45.248Z,41.49
2023-01-19T07:10:15.899Z,41.71
2023-01-19T07:12:46.653Z,41.68
2023-01-19T07:15:17.232Z,41.81
2023-01-19T07:17:46.670Z,41.84
2023-01-19T07:20:15.525Z,41.97
2023-01-19T07:22:46.057Z,42.02
2023-01-19T07:25:16.228Z,41.81
2023-01-19T07:27:45.570Z,42.04
2023-01-19T07:30:16.276Z,42.25
2023-01-19T07:32:44.869Z,42.27
2023-01-19T07:35:14.835Z,42.29
2023-01-19T07:37:43.325Z,42.35
2023-01-19T07:40:12.679Z,42.49
2023-01-19T07:42:48.891Z,42.60
2023-01-19T07:45:18.633Z,42.65
2023-01-19T07:47:51.336Z,43.00
2023-01-19T07:50:24.880Z,43.09
2023-01-19T07:52:54.505Z,43.52
2023-01-19T07:55:24.140Z,43.59
2023-01-19T07:57:53.156Z,43.81
2023-01-19T08:00:25.651Z,44.21
2023-01-19T08:02:58.911Z,44.38
2023-01-19T08:05:29.585Z,44.57
2023-01-19T08:07:58.626Z,44.83
2023-01-19T08:10:28.322Z,44.80
2023-01-19T08:12:57.544Z,45.03
2023-01-19T08:15:26.712Z,44.96
2023-01-19T08:17:58.002Z,44.96
2023-01-19T08:20:27.553Z,45.05
2023-01-19T08:23:00.693Z,45.12
2023-01-19T08:25:38.691Z,45.17
2023-01-19T08:28:08.185Z,45.10
2023-01-19T08:30:37.278Z,45.11
2023-01-19T08:33:08.460Z,45.14
2023-01-19T08:35:43.830Z,45.16
2023-01-19T08:38:12.585Z,44.99
2023-01-19T08:40:42.185Z,45.05
2023-01-19T08:43:13.029Z,44.91
2023-01-19T08:45:49.414Z,44.55
2023-01-19T08:48:20.455Z,44.99
2023-01-19T08:50:51.197Z,44.69
2023-01-19T08:53:21.604Z,44.75
2023-01-19T08:55:51.148Z,44.84
2023-01-19T08:58:19.704Z,44.58
2023-01-19T09:00:49.296Z,44.73
2023-01-19T09:03:18.144Z,44.75
2023-01-19T09:05:47.577Z,44.94
2023-01-19T09:08:16.475Z,44.98
2023-01-19T09:10:49.740Z,45.11
2023-01-19T09:13:19.077Z,44.98
2023-01-19T09:15:48.182Z,45.11
2023-01-19T09:18:18.621Z,45.17
2023-01-19T09:20:48.857Z,45.25
2023-01-19T09:23:19.313Z,45.29
2023-01-19T09:25:48.499Z,45.30
2023-01-19T09:28:17.918Z,45.37
2023-01-19T09:30:46.972Z,45.57
2023-01-19T09:33:16.917Z,45.44
2023-01-19T09:35:46.598Z,45.60
2023-01-19T09:38:15.543Z,45.74
2023-01-19T09:40:55.253Z,45.75
2023-01-19T09:43:27.465Z,45.73
2023-01-19T09:45:58.347Z,45.69
2023-01-19T09:48:33.504Z,45.78
2023-01-19T09:51:05.149Z,45.72
2023-01-19T09:53:53.067Z,45.91
2023-01-19T09:56:22.466Z,45.77
2023-01-19T09:58:51.559Z,46.00
2023-01-19T10:01:39.435Z,45.98
2023-01-19T10:04:19.884Z,45.95
2023-01-19T10:06:48.921Z,45.89
2023-01-19T10:09:34.562Z,46.02
2023-01-19T10:12:28.547Z,45.81
2023-01-19T10:15:04.580Z,46.08
2023-01-19T10:17:41.385Z,46.28
2023-01-19T10:20:36.768Z,46.22
2023-01-19T10:23:06.276Z,46.02
2023-01-19T10:25:34.960Z,46.03
2023-01-19T10:28:04.874Z,45.97
2023-01-19T10:30:33.485Z,45.77
2023-01-19T10:33:02.785Z,45.52
2023-01-19T10:35:31.743Z,45.34
2023-01-19T10:38:01.894Z,44.75
2023-01-19T10:40:59.023Z,44.74
2023-01-19T10:43:44.887Z,44.47
2023-01-19T10:46:34.321Z,44.36
2023-01-19T10:49:03.169Z,44.11
2023-01-19T10:51:33.298Z,43.87
2023-01-19T10:54:02.877Z,43.70
2023-01-19T10:56:38.592Z,43.37
2023-01-19T10:59:07.637Z,43.03
2023-01-19T11:01:38.219Z,42.93
2023-01-19T11:04:29.054Z,42.48
2023-01-19T11:07:16.875Z,42.19
2023-01-19T11:09:45.973Z,41.83
2023-01-19T11:12:32.935Z,41.36
2023-01-19T11:15:01.514Z,40.95
2023-01-19T11:17:30.462Z,40.83
2023-01-19T11:20:00.920Z,40.84
2023-01-19T11:22:33.165Z,40.64
2023-01-19T11:25:04.273Z,40.45
2023-01-19T11:27:35.298Z,40.36
2023-01-19T11:30:27.249Z,40.03
2023-01-19T11:32:56.608Z,39.79
2023-01-19T11:35:39.149Z,39.61
2023-01-19T11:38:17.025Z,39.45
2023-01-19T11:40:55.199Z,39.31
2023-01-19T11:43:36.592Z,39.58
2023-01-19T11:46:16.176Z,39.80
2023-01-19T11:49:26.195Z,39.69
2023-01-19T11:52:20.117Z,39.59
2023-01-19T11:55:00.593Z,39.38
2023-01-19T11:57:29.098Z,39.33
2023-01-19T12:00:03.801Z,39.36
2023-01-19T12:02:45.113Z,39.14
2023-01-19T12:05:17.138Z,38.84
2023-01-19T12:07:45.616Z,38.89
2023-01-19T12:10:28.587Z,38.90
2023-01-19T12:12:57.051Z,38.73
2023-01-19T12:15:37.637Z,38.77
2023-01-19T12:18:07.874Z,39.11
2023-01-19T12:20:53.844Z,39.03
2023-01-19T12:23:43.385Z,39.25
2023-01-19T12:26:29.090Z,39.26
2023-01-19T12:29:04.411Z,39.31
2023-01-19T12:31:35.393Z,39.34
2023-01-19T12:34:26.144Z,39.46
2023-01-19T12:36:54.946Z,39.73
2023-01-19T12:39:23.704Z,39.79
2023-01-19T12:42:15.692Z,39.99
2023-01-19T12:44:45.720Z,39.99
2023-01-19T12:47:14.387Z,39.98
2023-01-19T12:49:49.985Z,40.09
2023-01-19T12:52:41.470Z,40.29
2023-01-19T12:55:51.461Z,40.41
2023-01-19T12:58:24.245Z,40.43
2023-01-19T13:01:18.462Z,40.42
2023-01-19T13:04:04.486Z,40.62
2023-01-19T13:06:54.335Z,40.73
2023-01-19T13:09:33.640Z,40.64
2023-01-19T13:12:14.665Z,40.88
2023-01-19T13:14:43.526Z,40.69
2023-01-19T13:17:34.412Z,40.94
2023-01-19T13:20:23.585Z,40.99
2023-01-19T13:23:26.311Z,41.28
2023-01-19T13:26:02.718Z,41.15
2023-01-19T13:28:41.493Z,41.18
2023-01-19T13:31:10.428Z,41.31
2023-01-19T13:33:56.491Z,41.47
2023-01-19T13:36:36.973Z,41.47
2023-01-19T13:39:25.891Z,41.50
2023-01-19T13:41:56.951Z,41.62
2023-01-19T13:44:29.733Z,41.81
2023-01-19T13:46:59.962Z,41.96
2023-01-19T13:49:31.470Z,42.02
2023-01-19T13:52:22.743Z,42.23
2023-01-19T13:54:55.700Z,41.93
2023-01-19T13:57:41.137Z,42.21
2023-01-19T14:00:12.878Z,42.25
2023-01-19T14:03:02.596Z,42.64
2023-01-19T14:05:36.416Z,42.59
2023-01-19T14:08:13.054Z,42.57
2023-01-19T14:10:56.794Z,42.71
2023-01-19T14:13:40.286Z,42.70
2023-01-19T14:16:16.777Z,42.90
2023-01-19T14:18:45.636Z,42.72
2023-01-19T14:21:15.266Z,43.00
2023-01-19T14:23:51.152Z,42.96
2023-01-19T14:26:39.445Z,43.10
2023-01-19T14:29:18.804Z,43.07
2023-01-19T14:32:09.306Z,43.18
2023-01-19T14:34:46.314Z,42.67
2023-01-19T14:37:32.225Z,43.41
2023-01-19T14:40:13.426Z,43.06
2023-01-19T14:43:03.492Z,43.12
2023-01-19T14:45:39.435Z,43.37
2023-01-19T14:48:17.812Z,43.37
2023-01-19T14:51:02.376Z,43.56
2023-01-19T14:53:36.885Z,43.65
2023-01-19T14:56:07.028Z,43.77
2023-01-19T14:58:36.091Z,43.82
2023-01-19T15:01:06.715Z,43.71
2023-01-19T15:03:44.193Z,43.77
2023-01-19T15:06:16.017Z,43.61
2023-01-19T15:08:44.764Z,43.85
2023-01-19T15:11:17.005Z,43.87
2023-01-19T15:13:45.815Z,43.82
2023-01-19T15:16:14.921Z,43.83
2023-01-19T15:18:43.693Z,44.09
2023-01-19T15:21:19.713Z,44.04
2023-01-19T15:23:48.481Z,43.85
2023-01-19T15:26:20.981Z,43.77
2023-01-19T15:28:49.876Z,43.92
2023-01-19T15:31:23.343Z,43.99
2023-01-19T15:33:52.006Z,43.95
2023-01-19T15:36:22.055Z,43.95
2023-01-19T15:38:51.608Z,44.11
2023-01-19T15:41:30.276Z,43.97
2023-01-19T15:43:59.049Z,44.01
2023-01-19T15:46:28.110Z,44.20
2023-01-19T15:48:56.754Z,44.02
2023-01-19T15:51:27.074Z,44.28
2023-01-19T15:53:55.842Z,44.41
2023-01-19T15:56:26.819Z,43.92
2023-01-19T15:58:55.819Z,44.21
2023-01-19T16:01:35.353Z,44.37
2023-01-19T16:04:05.747Z,44.38
2023-01-19T16:06:34.819Z,44.20
2023-01-19T16:09:04.057Z,44.74
2023-01-19T16:11:33.881Z,44.31
2023-01-19T16:14:02.723Z,44.37
2023-01-19T16:16:31.781Z,44.31
2023-01-19T16:19:00.468Z,44.43
2023-01-19T16:21:30.474Z,44.00
2023-01-19T16:23:59.157Z,43.95
2023-01-19T16:26:34.653Z,43.78
2023-01-19T16:29:09.995Z,43.53
2023-01-19T16:31:41.091Z,43.33
2023-01-19T16:34:09.851Z,43.20
2023-01-19T16:36:41.133Z,43.10
2023-01-19T16:39:13.263Z,42.66
2023-01-19T16:41:43.855Z,42.78
2023-01-19T16:44:13.204Z,42.46
2023-01-19T16:46:45.368Z,42.31
2023-01-19T16:49:28.148Z,42.04
2023-01-19T16:51:58.671Z,41.94
2023-01-19T16:54:27.596Z,41.61
2023-01-19T16:56:57.866Z,41.43
2023-01-19T16:59:27.406Z,41.48
2023-01-19T17:01:57.209Z,41.13
2023-01-19T17:04:27.652Z,41.04
2023-01-19T17:06:56.589Z,40.98
2023-01-19T17:09:25.138Z,40.69
2023-01-19T17:11:53.985Z,40.32
2023-01-19T17:14:22.504Z,40.33
2023-01-19T17:16:51.335Z,40.02
2023-01-19T17:19:20.734Z,40.03
2023-01-19T17:21:50.094Z,40.18
2023-01-19T17:24:18.664Z,40.15
2023-01-19T17:26:48.926Z,39.75
2023-01-19T17:29:17.533Z,39.50
2023-01-19T17:31:46.994Z,39.56
2023-01-19T17:34:15.608Z,39.51
2023-01-19T17:36:45.036Z,39.40
2023-01-19T17:39:15.108Z,39.18
2023-01-19T17:41:45.090Z,39.31
2023-01-19T17:44:13.634Z,39.20
2023-01-19T17:46:42.419Z,39.15
2023-01-19T17:49:11.316Z,39.09
2023-01-19T17:51:40.079Z,39.14
2023-01-19T17:54:08.594Z,39.14
2023-01-19T17:56:38.893Z,39.35
2023-01-19T17:59:08.344Z,39.24
2023-01-19T18:01:40.099Z,39.51
2023-01-19T18:04:09.219Z,39.47
2023-01-19T18:06:39.688Z,39.87
2023-01-19T18:09:08.193Z,39.46
2023-01-19T18:11:38.269Z,39.40
2023-01-19T18:14:07.126Z,39.61
2023-01-19T18:16:36.206Z,39.76
2023-01-19T18:19:05.072Z,39.75
2023-01-19T18:21:35.194Z,39.48
2023-01-19T18:24:05.051Z,39.63
2023-01-19T18:26:34.691Z,39.48
2023-01-19T18:29:03.434Z,39.57
2023-01-19T18:31:32.390Z,39.42
2023-01-19T18:34:01.166Z,39.35
2023-01-19T18:36:32.171Z,39.21
2023-01-19T18:39:01.569Z,39.21
2023-01-19T18:41:31.373Z,39.25
2023-01-19T18:44:00.095Z,39.30
2023-01-19T18:46:29.010Z,39.32
2023-01-19T18:48:57.497Z,39.53
2023-01-19T18:51:26.320Z,39.28
2023-01-19T18:53:55.045Z,39.25
2023-01-19T18:56:23.984Z,38.94
2023-01-19T18:58:55.573Z,39.04
2023-01-19T19:01:40.714Z,39.08
2023-01-19T19:04:09.229Z,39.12
2023-01-19T19:06:38.006Z,39.04
2023-01-19T19:09:06.768Z,39.32
2023-01-19T19:11:35.920Z,39.31
2023-01-19T19:14:04.417Z,39.08
2023-01-19T19:16:35.843Z,39.28
2023-01-19T19:19:05.708Z,39.47
2023-01-19T19:21:34.445Z,39.64
2023-01-19T19:24:02.986Z,39.58
2023-01-19T19:26:32.914Z,39.78
2023-01-19T19:29:03.917Z,39.79
2023-01-19T19:31:33.889Z,39.77
2023-01-19T19:34:02.484Z,39.65
2023-01-19T19:36:31.957Z,39.64
2023-01-19T19:39:00.500Z,39.46
2023-01-19T19:41:29.325Z,39.46
2023-01-19T19:43:57.849Z,38.95
2023-01-19T19:46:27.717Z,39.00
2023-01-19T19:48:56.210Z,38.87
2023-01-19T19:51:27.350Z,39.11
2023-01-19T19:53:58.978Z,38.44
2023-01-19T19:56:29.870Z,38.33
2023-01-19T19:59:00.316Z,38.08
2023-01-19T20:01:32.791Z,38.26
2023-01-19T20:04:10.217Z,38.35
2023-01-19T20:06:44.886Z,38.33
2023-01-19T20:09:14.413Z,37.92
2023-01-19T20:11:44.775Z,38.12
2023-01-19T20:14:14.158Z,38.39
2023-01-19T20:16:44.107Z,38.21
2023-01-19T20:19:12.519Z,38.37
2023-01-19T20:21:42.010Z,38.28
2023-01-19T20:24:19.195Z,38.67
2023-01-19T20:26:51.262Z,38.63
2023-01-19T20:29:19.972Z,38.56
2023-01-19T20:31:55.059Z,38.53
2023-01-19T20:34:27.181Z,38.72
2023-01-19T20:36:55.973Z,38.72
2023-01-19T20:39:24.669Z,38.71
2023-01-19T20:41:53.537Z,38.58
2023-01-19T20:44:24.396Z,38.68
2023-01-19T20:46:53.677Z,38.91
2023-01-19T20:49:22.228Z,38.48
2023-01-19T20:51:52.275Z,38.43
2023-01-19T20:54:24.602Z,38.40
2023-01-19T20:56:53.823Z,38.09
2023-01-19T20:59:22.465Z,38.02
2023-01-19T21:01:51.607Z,37.91
2023-01-19T21:04:20.793Z,37.92
2023-01-19T21:06:49.582Z,37.62
2023-01-19T21:09:18.793Z,37.54
2023-01-19T21:11:47.598Z,37.77
2023-01-19T21:14:16.088Z,37.31
2023-01-19T21:16:44.956Z,37.35
2023-01-19T21:19:13.608Z,37.56
2023-01-19T21:21:42.326Z,37.31
2023-01-19T21:24:11.017Z,37.12
2023-01-19T21:26:42.565Z,37.60
2023-01-19T21:29:13.642Z,37.64
2023-01-19T21:31:42.699Z,37.49
2023-01-19T21:34:11.391Z,37.47
2023-01-19T21:36:40.418Z,37.41
2023-01-19T21:39:09.479Z,37.59
2023-01-19T21:41:40.067Z,37.94
2023-01-19T21:44:08.575Z,37.86
2023-01-19T21:46:37.491Z,37.62
2023-01-19T21:49:07.791Z,38.04
2023-01-19T21:51:37.689Z,37.84
2023-01-19T21:54:06.789Z,38.06
2023-01-19T21:56:35.996Z,37.97
2023-01-19T21:59:05.186Z,37.77
2023-01-19T22:01:34.366Z,37.60
2023-01-19T22:04:02.945Z,37.66
2023-01-19T22:06:31.171Z,37.68
2023-01-19T22:09:00.959Z,37.73
2023-01-19T22:11:30.222Z,37.54
2023-01-19T22:14:00.508Z,37.66
2023-01-19T22:16:33.541Z,37.77
2023-01-19T22:19:02.604Z,37.81
2023-01-19T22:21:33.448Z,37.64
2023-01-19T22:24:03.352Z,37.80
2023-01-19T22:26:32.396Z,38.01
2023-01-19T22:29:01.952Z,38.06
2023-01-19T22:31:31.062Z,37.88
2023-01-19T22:34:00.161Z,38.17
2023-01-19T22:36:30.339Z,38.15
2023-01-19T22:39:00.728Z,38.08
2023-01-19T22:41:34.331Z,38.19
2023-01-19T22:44:05.700Z,38.25
2023-01-19T22:46:36.037Z,38.37
2023-01-19T22:49:07.671Z,38.45
2023-01-19T22:51:36.734Z,38.62
2023-01-19T22:54:05.822Z,38.44
2023-01-19T22:56:35.527Z,38.61
2023-01-19T22:59:04.705Z,38.72
2023-01-19T23:01:39.079Z,38.59
2023-01-19T23:04:08.937Z,38.91
2023-01-19T23:06:37.763Z,38.79
2023-01-19T23:09:11.339Z,38.81
2023-01-19T23:11:41.973Z,38.93
2023-01-19T23:14:17.474Z,39.12
2023-01-19T23:16:47.386Z,39.14
2023-01-19T23:19:17.486Z,39.26
2023-01-19T23:21:46.078Z,39.39
2023-01-19T23:24:17.065Z,39.44
2023-01-19T23:26:45.598Z,39.54
2023-01-19T23:29:16.697Z,39.84
2023-01-19T23:31:47.504Z,39.66
2023-01-19T23:34:16.647Z,39.50
2023-01-19T23:36:45.544Z,39.96
2023-01-19T23:39:19.012Z,39.87
2023-01-19T23:41:47.440Z,40.12
2023-01-19T23:44:17.538Z,39.83
2023-01-19T23:46:46.280Z,40.08
2023-01-19T23:49:17.219Z,40.07
2023-01-19T23:51:45.647Z,40.08
2023-01-19T23:54:14.396Z,40.08
2023-01-19T23:56:43.005Z,40.33
2023-01-19T23:59:13.966Z,40.31
